Time;durP1;ratioP1;P1;durP2;ratioP2;P2;SDS_P1;SDS_P2;PMS_P1;PMS_P2;Temp;Humidity;BMP_temperature;BMP_pressure;BME280_temperature;BME280_humidity;BME280_pressure;Samples;Min_cycle;Max_cycle;Signal;HPM_P1;HPM_P2
2022/07/21 00:00:27;;;;;;;7.90;3.15;;;;;;;24.32;44.40;100347.00;5053448;28;20044;-79
2022/07/21 00:02:56;;;;;;;9.02;3.13;;;;;;;24.29;44.30;100352.75;5053123;28;20093;-81
2022/07/21 00:05:26;;;;;;;6.18;3.13;;;;;;;24.38;43.56;100356.31;5053110;28;20052;-81
2022/07/21 00:07:54;;;;;;;7.53;3.47;;;;;;;24.37;43.81;100360.91;5053293;28;20044;-82
2022/07/21 00:10:26;;;;;;;8.93;3.30;;;;;;;24.37;43.88;100366.38;5053096;28;20048;-81
2022/07/21 00:12:55;;;;;;;8.07;3.38;;;;;;;23.95;45.43;100366.72;5053282;28;20072;-81
2022/07/21 00:15:25;;;;;;;9.45;3.70;;;;;;;23.84;45.76;100370.66;5051922;28;20135;-82
2022/07/21 00:17:54;;;;;;;6.10;3.40;;;;;;;23.84;45.65;100378.84;5052747;28;20068;-79
2022/07/21 00:20:22;;;;;;;9.57;3.55;;;;;;;23.84;45.41;100378.84;5053002;28;20052;-79
2022/07/21 00:22:50;;;;;;;8.00;3.35;;;;;;;23.76;45.61;100378.88;5053139;28;20453;-75
2022/07/21 00:25:18;;;;;;;5.68;2.97;;;;;;;23.79;45.06;100378.50;5053244;28;20057;-75
2022/07/21 00:27:48;;;;;;;6.60;3.30;;;;;;;23.78;45.04;100378.69;5053218;28;20041;-75
2022/07/21 00:30:16;;;;;;;7.15;2.95;;;;;;;23.80;44.70;100373.91;5052656;28;20045;-76
2022/07/21 00:32:45;;;;;;;5.95;2.70;;;;;;;24.05;43.80;100372.81;5053077;28;20091;-75
2022/07/21 00:35:13;;;;;;;7.25;3.03;;;;;;;23.95;43.92;100373.00;5052789;28;20170;-78
2022/07/21 00:37:42;;;;;;;7.65;3.20;;;;;;;23.84;44.22;100376.13;5052992;28;20044;-78
2022/07/21 00:40:13;;;;;;;6.72;3.03;;;;;;;23.88;44.40;100371.16;5052535;28;20506;-77
2022/07/21 00:42:42;;;;;;;8.98;3.13;;;;;;;23.89;45.05;100367.41;5052747;28;20040;-77
2022/07/21 00:45:12;;;;;;;5.68;3.30;;;;;;;23.83;45.36;100368.94;5052824;28;20045;-78
2022/07/21 00:47:41;;;;;;;5.13;2.95;;;;;;;23.77;45.32;100377.00;5052596;28;20040;-78
2022/07/21 00:50:11;;;;;;;11.40;3.10;;;;;;;23.89;44.66;100367.41;5051259;28;20069;-78
2022/07/21 00:52:39;;;;;;;6.70;3.05;;;;;;;24.01;44.64;100367.88;5052572;28;20110;-78
2022/07/21 00:55:11;;;;;;;6.22;3.15;;;;;;;23.80;45.03;100369.31;5052403;28;20052;-78
2022/07/21 00:57:39;;;;;;;8.25;3.00;;;;;;;23.86;44.99;100374.06;5052972;28;20478;-78
2022/07/21 01:00:13;;;;;;;10.38;3.55;;;;;;;23.83;44.79;100373.53;5052581;28;20095;-78
2022/07/21 01:02:41;;;;;;;10.93;3.25;;;;;;;23.92;44.89;100367.03;5052795;28;20393;-76
2022/07/21 01:05:14;;;;;;;10.50;3.40;;;;;;;23.86;44.83;100362.31;5052407;28;20052;-75
2022/07/21 01:07:46;;;;;;;9.38;3.20;;;;;;;23.76;45.12;100362.53;5052366;28;20483;-77
2022/07/21 01:10:15;;;;;;;10.10;3.33;;;;;;;23.87;44.78;100358.56;5052260;28;20037;-77
2022/07/21 01:12:44;;;;;;;5.30;3.25;;;;;;;23.87;44.74;100366.75;5051481;28;20049;-75
2022/07/21 01:15:15;;;;;;;9.50;3.42;;;;;;;23.74;45.54;100372.75;5052254;28;20076;-75
2022/07/21 01:17:44;;;;;;;7.68;3.03;;;;;;;23.74;45.44;100371.88;5052524;28;20047;-74
2022/07/21 01:20:16;;;;;;;8.20;3.42;;;;;;;23.78;45.66;100373.22;5052300;28;20136;-75
2022/07/21 01:22:48;;;;;;;6.72;3.20;;;;;;;23.89;45.06;100362.81;5052775;28;20041;-81
2022/07/21 01:25:19;;;;;;;6.40;3.33;;;;;;;23.93;45.24;100372.34;5052218;28;20050;-80
2022/07/21 01:27:48;;;;;;;6.80;3.70;;;;;;;23.80;45.74;100372.03;5052304;28;20483;-80
2022/07/21 01:30:16;;;;;;;9.07;3.70;;;;;;;23.67;46.09;100374.47;5054990;28;20064;-80
2022/07/21 01:32:45;;;;;;;10.38;3.40;;;;;;;23.70;46.11;100374.94;5055983;28;20049;-75
2022/07/21 01:35:15;;;;;;;9.63;3.45;;;;;;;23.47;46.40;100376.69;5055889;28;20493;-75
2022/07/21 01:37:48;;;;;;;6.85;3.45;;;;;;;23.31;46.93;100380.25;5055996;28;20087;-74
2022/07/21 01:43:04;;;;;;;5.88;3.15;;;;;;;23.14;47.49;100381.28;5055733;28;20048;-75
2022/07/21 01:45:40;;;;;;;7.60;3.50;;;;;;;22.92;48.72;100376.53;5055722;28;20124;-74
2022/07/21 01:48:08;;;;;;;6.40;3.22;;;;;;;23.02;48.21;100369.03;5055310;28;20402;-73
2022/07/21 01:50:38;;;;;;;11.90;4.00;;;;;;;22.93;48.88;100368.19;5055471;28;20051;-78
2022/07/21 01:53:07;;;;;;;8.88;3.10;;;;;;;23.13;48.20;100368.69;5055366;28;20095;-79
2022/07/21 01:55:36;;;;;;;8.48;4.15;;;;;;;23.26;47.74;100363.63;5055578;28;20056;-78
2022/07/21 01:58:04;;;;;;;8.90;4.00;;;;;;;23.17;48.06;100374.69;5055463;28;20049;-78
2022/07/21 02:00:32;;;;;;;11.07;3.80;;;;;;;22.97;48.75;100368.69;5054364;28;20053;-78
2022/07/21 02:03:00;;;;;;;8.00;3.38;;;;;;;23.05;48.46;100368.69;5055542;28;20045;-77
2022/07/21 02:05:28;;;;;;;9.10;3.85;;;;;;;22.81;49.32;100377.69;5055229;28;20119;-78
2022/07/21 02:07:57;;;;;;;10.40;4.05;;;;;;;22.85;49.10;100369.03;5055301;28;20045;-78
2022/07/21 02:10:26;;;;;;;11.05;4.65;;;;;;;22.80;49.45;100371.38;5054826;28;20508;-77
2022/07/21 02:12:55;;;;;;;11.48;3.42;;;;;;;22.72;49.83;100371.38;5055559;28;20051;-81
2022/07/21 02:15:23;;;;;;;6.25;3.38;;;;;;;22.58;50.18;100361.13;5055064;28;20109;-81
2022/07/21 02:17:51;;;;;;;8.55;3.63;;;;;;;22.54;50.30;100370.66;5055219;28;20041;-81
2022/07/21 02:20:19;;;;;;;9.77;3.67;;;;;;;22.42;50.70;100372.00;5054851;28;20072;-81
2022/07/21 02:22:47;;;;;;;7.97;3.45;;;;;;;22.42;50.58;100366.56;5054979;28;20119;-81
2022/07/21 02:25:16;;;;;;;7.28;3.55;;;;;;;22.55;50.13;100372.34;5054964;28;20483;-79
2022/07/21 02:27:47;;;;;;;5.65;3.22;;;;;;;22.56;49.66;100363.19;5055373;28;20068;-80
2022/07/21 02:30:15;;;;;;;7.35;3.80;;;;;;;22.40;50.25;100368.59;5054701;28;20544;-80
2022/07/21 02:32:43;;;;;;;7.03;3.50;;;;;;;22.42;50.35;100374.72;5054970;28;20052;-83
2022/07/21 02:35:12;;;;;;;6.80;3.33;;;;;;;22.38;50.18;100382.31;5053241;28;20053;-75
2022/07/21 02:37:40;;;;;;;9.05;4.03;;;;;;;22.36;50.49;100378.06;5054976;28;20455;-78
2022/07/21 02:40:09;;;;;;;8.07;3.70;;;;;;;22.35;50.28;100381.81;5054458;28;20123;-78
2022/07/21 02:42:39;;;;;;;11.35;3.63;;;;;;;22.26;51.05;100378.22;5054978;28;20048;-78
2022/07/21 02:45:10;;;;;;;8.60;3.63;;;;;;;22.24;51.67;100378.38;5054793;28;20053;-78
2022/07/21 02:47:52;;;;;;;8.63;3.53;;;;;;;22.22;51.75;100377.72;5054623;28;20064;-78
2022/07/21 02:50:21;;;;;;;7.68;3.65;;;;;;;22.21;51.81;100380.59;5054544;28;20041;-77
2022/07/21 02:52:50;;;;;;;6.22;3.30;;;;;;;22.27;51.78;100383.47;5053339;28;20103;-77
2022/07/21 02:55:18;;;;;;;8.00;3.25;;;;;;;22.32;51.82;100388.44;5054338;28;20072;-80
2022/07/21 02:57:46;;;;;;;5.22;2.90;;;;;;;22.46;51.34;100384.22;5054665;28;20441;-80
2022/07/21 03:00:16;;;;;;;6.15;3.17;;;;;;;22.57;51.08;100383.91;5053962;28;20397;-79
2022/07/21 03:02:44;;;;;;;7.80;3.42;;;;;;;22.62;51.06;100388.84;5054489;28;20095;-75
2022/07/21 03:05:12;;;;;;;6.50;3.05;;;;;;;22.41;51.62;100387.44;5053230;28;20409;-75
2022/07/21 03:07:40;;;;;;;14.02;3.40;;;;;;;22.23;52.25;100384.84;5054135;28;20102;-75
2022/07/21 03:10:09;;;;;;;8.00;3.60;;;;;;;22.37;51.84;100382.50;5053964;28;20036;-75
2022/07/21 03:12:37;;;;;;;11.50;3.42;;;;;;;22.30;52.01;100389.63;5054043;28;20402;-75
2022/07/21 03:15:07;;;;;;;8.32;3.67;;;;;;;22.13;52.69;100388.72;5053901;28;20406;-75
2022/07/21 03:17:36;;;;;;;11.13;3.70;;;;;;;22.26;51.97;100379.06;5054015;28;20041;-75
2022/07/21 03:20:06;;;;;;;7.03;3.28;;;;;;;22.25;52.25;100381.94;5053798;28;20044;-75
2022/07/21 03:22:34;;;;;;;8.20;2.90;;;;;;;22.21;52.37;100376.00;5052102;28;20482;-75
2022/07/21 03:25:05;;;;;;;8.63;3.15;;;;;;;22.26;52.23;100379.06;5068890;28;20065;-74
2022/07/21 03:27:36;;;;;;;6.38;3.20;;;;;;;22.37;52.16;100386.06;5053585;28;20053;-73
2022/07/21 03:30:06;;;;;;;8.30;3.20;;;;;;;22.53;51.43;100379.84;5053658;28;20072;-73
2022/07/21 03:32:37;;;;;;;6.38;3.20;;;;;;;22.53;51.59;100379.84;5053784;28;20397;-74
2022/07/21 03:35:07;;;;;;;9.45;3.28;;;;;;;22.36;52.43;100384.38;5053678;28;20405;-73
2022/07/21 03:37:41;;;;;;;9.85;3.40;;;;;;;22.55;51.76;100383.22;5053681;28;20063;-75
2022/07/21 03:40:11;;;;;;;9.90;3.08;;;;;;;22.64;51.11;100386.81;5052516;28;20052;-75
2022/07/21 03:42:39;;;;;;;10.77;3.60;;;;;;;22.70;51.01;100387.00;5053473;28;20102;-74
2022/07/21 03:45:08;;;;;;;9.05;3.40;;;;;;;22.78;50.77;100395.19;5053386;28;20495;-73
2022/07/21 03:47:39;;;;;;;6.93;3.22;;;;;;;22.85;50.47;100390.78;5053515;28;20049;-76
2022/07/21 03:50:08;;;;;;;10.38;3.50;;;;;;;23.05;50.02;100383.16;5053290;28;20041;-77
2022/07/21 03:52:36;;;;;;;8.68;3.60;;;;;;;23.46;48.72;100380.44;5053002;28;20102;-74
2022/07/21 03:55:14;;;;;;;11.80;3.63;;;;;;;23.89;47.14;100379.16;5053630;28;20124;-74
2022/07/21 03:57:46;;;;;;;11.25;3.75;;;;;;;24.24;46.86;100387.88;5053651;28;20466;-73
2022/07/21 04:00:17;;;;;;;9.60;3.65;;;;;;;24.72;45.85;100392.25;5053030;28;20076;-79
2022/07/21 04:02:47;;;;;;;8.18;3.38;;;;;;;25.51;43.81;100392.81;5053191;28;20049;-79
2022/07/21 04:05:16;;;;;;;8.77;3.28;;;;;;;25.84;42.91;100395.22;5053382;28;20033;-80
2022/07/21 04:07:46;;;;;;;7.40;3.40;;;;;;;26.01;42.65;100398.63;5053492;28;20132;-74
2022/07/21 04:10:16;;;;;;;8.35;3.35;;;;;;;26.46;41.39;100397.59;5051452;28;20052;-74
2022/07/21 04:12:45;;;;;;;11.35;3.30;;;;;;;26.87;41.04;100405.19;5052928;28;20060;-77
2022/07/21 04:15:13;;;;;;;9.10;3.13;;;;;;;27.02;41.02;100401.41;5052664;28;20492;-80
2022/07/21 04:17:42;;;;;;;7.18;3.50;;;;;;;27.50;39.82;100406.22;5052916;28;20075;-77
2022/07/21 04:20:13;;;;;;;8.20;3.47;;;;;;;27.53;39.67;100405.84;5053272;28;20051;-77
2022/07/21 04:22:42;;;;;;;5.43;2.92;;;;;;;27.55;40.29;100410.06;5052925;28;20041;-77
2022/07/21 04:25:13;;;;;;;7.15;3.40;;;;;;;27.82;39.45;100410.31;5052938;28;20053;-76
2022/07/21 04:27:42;;;;;;;9.30;3.22;;;;;;;27.63;39.65;100409.09;5053158;28;20091;-77
2022/07/21 04:30:13;;;;;;;7.60;3.40;;;;;;;28.26;38.01;100401.69;5052924;28;20083;-75
2022/07/21 04:32:42;;;;;;;7.15;3.05;;;;;;;28.35;37.93;100410.63;5053140;28;20478;-74
2022/07/21 04:35:11;;;;;;;6.82;3.45;;;;;;;28.43;37.95;100418.69;5052860;28;20037;-74
2022/07/21 04:37:40;;;;;;;9.20;3.75;;;;;;;28.43;37.37;100413.19;5052815;28;20103;-74
2022/07/21 04:40:11;;;;;;;6.65;2.72;;;;;;;29.00;36.53;100409.19;5052738;28;20041;-73
2022/07/21 04:42:40;;;;;;;8.05;3.00;;;;;;;28.75;36.53;100412.44;5052777;28;20072;-74
2022/07/21 04:45:11;;;;;;;8.98;3.17;;;;;;;29.63;35.46;100407.78;5052781;28;20554;-74
2022/07/21 04:47:46;;;;;;;7.28;3.25;;;;;;;29.50;35.41;100409.66;5052602;28;20037;-74
2022/07/21 04:50:16;;;;;;;10.00;3.40;;;;;;;29.17;35.68;100401.38;5052577;28;20053;-76
2022/07/21 04:52:45;;;;;;;8.15;3.10;;;;;;;29.80;35.25;100407.31;5051282;28;20151;-74
2022/07/21 04:55:14;;;;;;;7.22;2.85;;;;;;;29.99;33.87;100409.16;5052744;28;20041;-85
2022/07/21 04:57:45;;;;;;;8.57;2.80;;;;;;;30.34;33.68;100411.66;5053453;28;20115;-78
2022/07/21 05:00:16;;;;;;;6.45;2.83;;;;;;;30.62;33.22;100406.66;5053245;28;20055;-75
2022/07/21 05:02:46;;;;;;;8.80;3.45;;;;;;;30.92;33.09;100409.69;5052525;28;20347;-71
2022/07/21 05:05:16;;;;;;;8.93;3.38;;;;;;;30.42;33.58;100419.66;5055266;28;20080;-72
2022/07/21 05:07:44;;;;;;;7.88;3.22;;;;;;;30.65;33.46;100409.00;5056527;28;20048;-71
2022/07/21 05:10:14;;;;;;;8.05;3.20;;;;;;;30.66;32.82;100409.84;5056354;28;20398;-72
2022/07/21 05:12:42;;;;;;;7.78;3.03;;;;;;;31.29;31.66;100410.72;5056306;28;20094;-70
2022/07/21 05:15:15;;;;;;;10.05;3.08;;;;;;;31.89;31.07;100410.22;5056166;28;20136;-69
2022/07/21 05:17:44;;;;;;;7.38;3.08;;;;;;;31.14;32.33;100410.16;5056185;28;20091;-70
2022/07/21 05:20:12;;;;;;;10.27;3.30;;;;;;;31.01;32.64;100407.50;5056325;28;20048;-69
2022/07/21 05:22:42;;;;;;;6.70;3.25;;;;;;;31.48;31.85;100413.56;5055779;28;20045;-69
2022/07/21 05:25:10;;;;;;;6.07;3.28;;;;;;;31.80;31.78;100412.44;5055709;28;20088;-70
2022/07/21 05:27:38;;;;;;;9.77;3.63;;;;;;;31.76;31.44;100413.97;5055743;28;20045;-70
2022/07/21 05:30:08;;;;;;;6.82;3.25;;;;;;;32.10;30.71;100422.72;5055567;28;20037;-70
2022/07/21 05:32:36;;;;;;;7.82;3.28;;;;;;;32.33;30.59;100425.69;5054007;28;20557;-72
2022/07/21 05:35:13;;;;;;;8.80;3.05;;;;;;;33.05;29.46;100422.19;5055948;28;20045;-73
2022/07/21 05:37:45;;;;;;;10.05;3.50;;;;;;;33.05;29.93;100428.56;5054466;28;20045;-73
2022/07/21 05:40:13;;;;;;;8.40;3.20;;;;;;;32.29;30.41;100427.16;5055899;28;20051;-73
2022/07/21 05:42:42;;;;;;;7.97;3.28;;;;;;;33.25;29.93;100425.50;5055341;28;20052;-72
2022/07/21 05:45:11;;;;;;;9.32;3.05;;;;;;;33.67;28.47;100433.75;5055996;28;20041;-70
2022/07/21 05:47:39;;;;;;;5.35;2.67;;;;;;;34.03;28.05;100430.78;5055575;28;20064;-70
2022/07/21 05:50:09;;;;;;;6.57;3.03;;;;;;;33.78;28.79;100430.13;5055790;28;20063;-69
2022/07/21 05:52:37;;;;;;;6.53;2.90;;;;;;;34.36;27.84;100432.91;5055303;28;20489;-71
2022/07/21 05:55:08;;;;;;;8.60;3.35;;;;;;;34.25;27.52;100427.38;5055412;28;20045;-70
2022/07/21 05:57:37;;;;;;;5.93;2.97;;;;;;;34.49;27.65;100437.34;5055430;28;20485;-73
2022/07/21 06:00:14;;;;;;;6.60;3.15;;;;;;;34.98;26.71;100432.25;5054498;28;20079;-73
2022/07/21 06:02:42;;;;;;;8.75;3.40;;;;;;;35.67;25.59;100430.16;5055224;28;20048;-72
2022/07/21 06:05:11;;;;;;;7.15;3.40;;;;;;;35.30;26.36;100438.09;5055317;28;20033;-72
2022/07/21 06:07:39;;;;;;;8.13;3.20;;;;;;;35.39;25.93;100441.34;5053726;28;20048;-74
2022/07/21 06:10:10;;;;;;;6.65;3.40;;;;;;;35.41;26.12;100439.97;5055069;28;20178;-71
2022/07/21 06:12:43;;;;;;;4.82;3.10;;;;;;;35.66;25.90;100431.25;5055188;28;20041;-69
2022/07/21 06:15:12;;;;;;;8.30;3.72;;;;;;;35.81;26.08;100433.44;5054804;28;20057;-69
2022/07/21 06:17:41;;;;;;;9.75;3.28;;;;;;;35.98;25.59;100433.41;5054726;28;20072;-67
2022/07/21 06:20:11;;;;;;;11.75;3.78;;;;;;;36.18;25.22;100430.09;5054592;28;20072;-66
2022/07/21 06:22:39;;;;;;;9.25;3.92;;;;;;;36.68;23.73;100429.97;5053701;28;20060;-66
2022/07/21 06:25:09;;;;;;;9.70;3.67;;;;;;;37.27;22.91;100430.03;5054625;28;20383;-66
2022/07/21 06:27:38;;;;;;;8.18;3.47;;;;;;;37.25;22.40;100427.53;5054697;28;20436;-68
2022/07/21 06:30:07;;;;;;;8.05;3.67;;;;;;;37.49;22.76;100428.03;5054813;28;20045;-67
2022/07/21 06:32:35;;;;;;;10.10;3.80;;;;;;;37.33;22.44;100428.16;5054476;28;20433;-69
2022/07/21 06:35:04;;;;;;;9.85;3.65;;;;;;;37.50;22.03;100423.31;5054849;28;20410;-67
2022/07/21 06:37:32;;;;;;;9.07;3.83;;;;;;;37.10;22.89;100429.31;5054634;28;20040;-70
2022/07/21 06:40:00;;;;;;;9.07;3.80;;;;;;;36.95;23.39;100428.03;5070285;28;20118;-66
2022/07/21 06:42:30;;;;;;;7.85;3.60;;;;;;;36.75;23.68;100427.78;5054158;28;20065;-67
2022/07/21 06:44:58;;;;;;;9.15;3.80;;;;;;;37.19;23.62;100424.94;5052567;28;20090;-67
2022/07/21 06:47:27;;;;;;;7.22;3.53;;;;;;;37.79;22.46;100416.31;5054205;28;20063;-67
2022/07/21 06:49:55;;;;;;;8.35;3.40;;;;;;;37.33;22.80;100417.03;5054274;28;20084;-67
2022/07/21 06:52:29;;;;;;;9.25;3.72;;;;;;;37.30;23.18;100423.13;5054019;28;20052;-67
2022/07/21 06:54:57;;;;;;;9.40;4.13;;;;;;;37.23;23.45;100426.94;5054522;28;20116;-67
2022/07/21 06:57:25;;;;;;;14.73;3.90;;;;;;;37.40;22.96;100429.63;5054077;28;20482;-67
2022/07/21 06:59:55;;;;;;;9.23;3.75;;;;;;;36.79;24.85;100417.00;5054245;28;20448;-67
2022/07/21 07:02:23;;;;;;;9.43;3.72;;;;;;;37.04;24.10;100424.78;5054381;28;20041;-67
2022/07/21 07:04:51;;;;;;;9.63;3.90;;;;;;;36.49;24.42;100428.63;5054285;28;20045;-68
2022/07/21 07:07:19;;;;;;;11.02;4.50;;;;;;;35.92;24.54;100420.59;5053979;28;20083;-68
2022/07/21 07:09:48;;;;;;;10.55;4.35;;;;;;;35.52;25.65;100421.59;5053876;28;20497;-68
2022/07/21 07:12:16;;;;;;;6.78;3.60;;;;;;;34.83;25.94;100426.38;5052653;28;20052;-69
2022/07/21 07:15:07;;;;;;;10.02;4.30;;;;;;;34.70;27.38;100427.53;5053080;28;20049;-68
2022/07/21 07:17:35;;;;;;;11.02;4.10;;;;;;;34.83;27.37;100426.38;5053871;28;20048;-68
2022/07/21 07:20:07;;;;;;;8.35;4.00;;;;;;;34.17;26.89;100433.31;5052682;28;20045;-68
2022/07/21 07:22:35;;;;;;;10.32;3.75;;;;;;;33.85;27.21;100428.09;5053618;28;20041;-69
2022/07/21 07:25:04;;;;;;;10.30;4.18;;;;;;;33.71;27.61;100429.44;5054036;28;20053;-68
2022/07/21 07:27:32;;;;;;;10.93;4.20;;;;;;;33.75;27.48;100430.63;5052995;28;20051;-68
2022/07/21 07:30:01;;;;;;;11.18;4.13;;;;;;;33.37;28.80;100423.63;5053837;28;20045;-68
2022/07/21 07:32:38;;;;;;;9.43;4.50;;;;;;;33.46;27.94;100422.19;5053730;28;20120;-68
2022/07/21 07:35:08;;;;;;;6.45;3.60;;;;;;;33.17;27.79;100423.91;5053445;28;20044;-68
2022/07/21 07:37:36;;;;;;;8.57;4.68;;;;;;;33.16;28.39;100422.22;5053181;28;20095;-68
2022/07/21 07:40:07;;;;;;;8.98;4.00;;;;;;;32.68;28.69;100413.97;5053682;28;20037;-68
2022/07/21 07:42:35;;;;;;;6.93;4.10;;;;;;;33.07;27.60;100411.75;5068856;28;20064;-68
2022/07/21 07:45:05;;;;;;;8.65;4.00;;;;;;;33.10;27.67;100416.78;5069141;28;20053;-68
2022/07/21 07:47:35;;;;;;;7.25;3.90;;;;;;;32.95;27.99;100412.56;5053465;28;20040;-68
2022/07/21 07:50:05;;;;;;;10.65;4.05;;;;;;;33.04;28.08;100413.06;5053345;28;20486;-68
2022/07/21 07:52:34;;;;;;;9.80;3.80;;;;;;;33.20;28.03;100417.94;5053491;28;20546;-68
2022/07/21 07:55:04;;;;;;;7.97;4.13;;;;;;;33.19;28.27;100418.97;5053457;28;20045;-68
2022/07/21 07:57:35;;;;;;;10.38;3.97;;;;;;;33.19;28.14;100418.13;5052981;28;20037;-68
2022/07/21 08:00:04;;;;;;;8.18;4.13;;;;;;;33.05;28.37;100411.97;5053186;28;20387;-68
2022/07/21 08:02:52;;;;;;;8.82;3.90;;;;;;;32.88;29.23;100417.31;5053551;28;20055;-68
2022/07/21 08:05:22;;;;;;;6.68;4.30;;;;;;;33.04;27.95;100413.06;5053077;28;20446;-68
2022/07/21 08:07:50;;;;;;;7.00;3.90;;;;;;;32.94;28.19;100401.75;5052755;28;20041;-68
2022/07/21 08:10:18;;;;;;;7.35;4.15;;;;;;;32.97;28.31;100406.78;5053007;28;20122;-68
2022/07/21 08:13:08;;;;;;;10.40;4.00;;;;;;;32.81;28.42;100402.72;5051506;28;20586;-67
2022/07/21 08:15:37;;;;;;;9.52;3.75;;;;;;;32.49;28.38;100409.56;5052500;28;20055;-68
2022/07/21 08:18:07;;;;;;;7.25;3.67;;;;;;;32.41;28.93;100407.94;5053109;28;20120;-68
2022/07/21 08:20:38;;;;;;;9.02;4.30;;;;;;;32.33;28.65;100400.84;5051438;28;20053;-68
2022/07/21 08:23:06;;;;;;;8.63;4.03;;;;;;;32.44;28.50;100402.81;5051493;28;20390;-68
2022/07/21 08:25:35;;;;;;;7.15;3.80;;;;;;;32.64;28.51;100408.09;5053102;28;20127;-68
2022/07/21 08:28:03;;;;;;;6.95;3.75;;;;;;;32.66;28.23;100405.09;5053052;28;20069;-68
2022/07/21 08:30:31;;;;;;;6.65;4.00;;;;;;;32.49;28.82;100399.34;5052796;28;20048;-68
2022/07/21 08:33:01;;;;;;;6.88;4.35;;;;;;;32.55;28.85;100406.72;5052537;28;20049;-68
2022/07/21 08:35:29;;;;;;;7.57;4.35;;;;;;;32.72;29.24;100393.13;5052708;28;20037;-68
2022/07/21 08:38:00;;;;;;;8.57;4.30;;;;;;;32.92;28.00;100395.63;5052561;28;20142;-68
2022/07/21 08:40:30;;;;;;;7.40;4.05;;;;;;;33.00;28.00;100390.56;5056918;28;20134;-68
2022/07/21 08:42:59;;;;;;;8.90;4.15;;;;;;;33.17;27.68;100390.75;5057271;28;20052;-68
2022/07/21 08:45:30;;;;;;;6.30;3.70;;;;;;;33.25;27.52;100386.78;5056670;28;20076;-67
2022/07/21 08:47:59;;;;;;;7.68;4.38;;;;;;;33.24;27.39;100385.13;5055532;28;20104;-67
2022/07/21 08:50:30;;;;;;;9.57;4.28;;;;;;;33.28;27.16;100381.63;5056651;28;20124;-68
2022/07/21 08:53:00;;;;;;;7.60;4.15;;;;;;;33.19;27.19;100390.50;5056635;28;20041;-66
2022/07/21 08:55:30;;;;;;;7.00;3.97;;;;;;;33.19;27.62;100394.09;5056823;28;20044;-66
2022/07/21 08:57:58;;;;;;;8.27;3.95;;;;;;;33.20;27.49;100387.53;5056567;28;20487;-68
2022/07/21 09:00:27;;;;;;;7.20;4.20;;;;;;;33.28;27.21;100386.31;5071739;28;20045;-67
2022/07/21 09:03:09;;;;;;;8.38;4.65;;;;;;;33.46;26.69;100377.94;5056276;28;20090;-68
2022/07/21 09:05:38;;;;;;;10.55;4.03;;;;;;;33.10;27.02;100369.81;5056544;28;20545;-69
2022/07/21 09:08:08;;;;;;;6.03;3.40;;;;;;;32.96;27.59;100374.72;5055112;28;20044;-68
2022/07/21 09:10:37;;;;;;;6.20;3.63;;;;;;;32.83;27.57;100373.00;5056462;28;20041;-69
2022/07/21 09:13:07;;;;;;;5.07;3.90;;;;;;;32.89;27.56;100369.28;5071576;28;20111;-68
2022/07/21 09:15:36;;;;;;;7.68;3.90;;;;;;;32.82;27.97;100371.28;5056247;28;20052;-69
2022/07/21 09:18:16;;;;;;;6.90;3.70;;;;;;;33.21;27.05;100371.78;5056296;28;20090;-66
2022/07/21 09:20:48;;;;;;;6.93;3.63;;;;;;;33.35;27.18;100364.09;5055819;28;20391;-68
2022/07/21 09:23:19;;;;;;;6.40;3.80;;;;;;;33.46;26.57;100366.91;5056124;28;20455;-67
2022/07/21 09:25:50;;;;;;;8.80;4.32;;;;;;;33.53;26.78;100367.63;5055880;28;20076;-66
2022/07/21 09:28:20;;;;;;;8.02;4.10;;;;;;;33.56;26.28;100358.00;5055161;28;20470;-68
2022/07/21 09:30:57;;;;;;;5.72;3.53;;;;;;;33.55;26.62;100354.41;5055914;28;20076;-68
2022/07/21 09:33:31;;;;;;;6.28;3.60;;;;;;;33.54;26.35;100357.41;5055934;28;20037;-68
2022/07/21 09:36:08;;;;;;;8.27;3.80;;;;;;;33.14;26.68;100354.47;5056002;28;20047;-68
2022/07/21 09:38:41;;;;;;;5.47;3.78;;;;;;;32.98;27.51;100353.22;5055392;28;20041;-68
2022/07/21 09:41:13;;;;;;;6.38;3.95;;;;;;;33.37;27.13;100348.97;5056232;28;20068;-68
2022/07/21 09:43:43;;;;;;;8.57;3.65;;;;;;;33.31;26.65;100344.41;5055584;28;20068;-68
2022/07/21 09:46:14;;;;;;;7.30;3.83;;;;;;;33.24;26.88;100335.38;5054579;28;20049;-67
2022/07/21 09:48:45;;;;;;;8.45;3.70;;;;;;;33.41;26.50;100332.78;5055307;28;20047;-68
2022/07/21 09:51:37;;;;;;;11.98;4.05;;;;;;;33.46;26.51;100344.78;5055321;28;20123;-67
2022/07/21 09:54:09;;;;;;;8.23;3.80;;;;;;;33.43;26.05;100333.38;5055857;28;20136;-68
2022/07/21 09:56:40;;;;;;;5.53;3.60;;;;;;;33.36;26.22;100336.25;5055405;28;20048;-68
2022/07/21 09:59:10;;;;;;;5.63;3.17;;;;;;;33.49;26.33;100333.25;5054348;28;20107;-68
2022/07/21 10:01:39;;;;;;;5.57;3.72;;;;;;;33.73;25.48;100322.16;5055300;28;20051;-68
2022/07/21 10:04:07;;;;;;;9.15;3.58;;;;;;;33.89;25.92;100331.69;5054420;28;20052;-68
2022/07/21 10:06:37;;;;;;;7.38;3.35;;;;;;;33.80;25.39;100320.13;5055139;28;20509;-70
2022/07/21 10:09:10;;;;;;;5.15;3.38;;;;;;;33.76;25.17;100322.50;5055223;28;20100;-68
2022/07/21 10:11:41;;;;;;;5.40;3.33;;;;;;;33.63;25.57;100317.25;5054938;28;20466;-68
2022/07/21 10:14:11;;;;;;;8.75;3.75;;;;;;;33.74;25.49;100318.31;5053998;28;20052;-67
2022/07/21 10:16:39;;;;;;;8.15;3.70;;;;;;;33.58;25.92;100309.66;5054940;28;20045;-68
2022/07/21 10:19:22;;;;;;;8.65;3.47;;;;;;;33.74;25.46;100310.00;5053976;28;20049;-67
2022/07/21 10:21:56;;;;;;;8.65;3.60;;;;;;;33.67;25.37;100312.06;5055036;28;20047;-67
2022/07/21 10:24:29;;;;;;;9.18;3.42;;;;;;;33.74;25.12;100307.25;5054768;28;20051;-68
2022/07/21 10:27:03;;;;;;;5.38;3.22;;;;;;;33.91;25.54;100308.22;5053629;28;20045;-68
2022/07/21 10:29:53;;;;;;;6.55;3.70;;;;;;;34.03;25.25;100295.19;5054910;28;20037;-68
2022/07/21 10:32:33;;;;;;;8.20;3.45;;;;;;;34.18;25.27;100302.13;5054833;28;20114;-68
2022/07/21 10:35:23;;;;;;;9.35;3.30;;;;;;;34.23;24.48;100293.91;5053455;28;20155;-68
2022/07/21 10:37:51;;;;;;;7.72;3.63;;;;;;;34.23;24.63;100297.53;5054419;28;20045;-68
2022/07/21 10:40:42;;;;;;;10.00;3.60;;;;;;;34.10;24.63;100290.34;5053600;28;20413;-68
2022/07/21 10:43:42;;;;;;;7.57;3.28;;;;;;;34.26;24.46;100285.09;5051925;28;20403;-68
2022/07/21 10:46:36;;;;;;;7.00;3.45;;;;;;;34.40;24.42;100283.75;5070276;28;20052;-67
2022/07/21 10:49:06;;;;;;;6.88;3.53;;;;;;;34.29;24.58;100285.47;5069865;28;20045;-68
2022/07/21 10:51:36;;;;;;;7.32;3.55;;;;;;;34.43;24.30;100286.88;5054521;28;20041;-68
2022/07/21 10:54:23;;;;;;;11.90;3.92;;;;;;;34.17;24.95;100279.16;5070034;28;20044;-67
2022/07/21 10:57:24;;;;;;;7.00;3.30;;;;;;;34.26;24.51;100272.13;5052881;28;20056;-68
2022/07/21 11:00:19;;;;;;;6.47;3.42;;;;;;;34.39;24.50;100271.00;5054299;28;20068;-68
2022/07/21 11:02:52;;;;;;;6.35;3.15;;;;;;;34.54;23.99;100262.13;5039170;28;20048;-68
2022/07/21 11:05:21;;;;;;;6.93;3.33;;;;;;;34.66;23.96;100269.31;5054212;28;20067;-68
2022/07/21 11:08:12;;;;;;;7.25;3.40;;;;;;;34.51;24.16;100263.47;5053795;28;20048;-68
2022/07/21 11:10:42;;;;;;;5.88;3.70;;;;;;;34.53;24.52;100254.91;5054126;28;20037;-68
2022/07/21 11:13:10;;;;;;;6.20;3.72;;;;;;;34.51;24.00;100257.94;5054042;28;20049;-67
2022/07/21 11:15:59;;;;;;;8.32;3.40;;;;;;;34.79;24.79;100258.97;5053525;28;20049;-73
2022/07/21 11:18:29;;;;;;;8.68;3.92;;;;;;;34.83;23.80;100252.66;5054031;28;20124;-68
2022/07/21 11:21:08;;;;;;;7.53;3.72;;;;;;;34.68;23.92;100252.44;5052620;28;20140;-68
2022/07/21 11:23:39;;;;;;;5.30;3.60;;;;;;;34.83;23.87;100237.97;5053625;28;20095;-68
2022/07/21 11:26:07;;;;;;;6.03;4.07;;;;;;;34.90;23.88;100250.59;5053842;28;20037;-68
2022/07/21 11:28:36;;;;;;;12.05;3.55;;;;;;;34.94;24.36;100239.88;5053821;28;20047;-68
2022/07/21 11:31:11;;;;;;;6.43;3.47;;;;;;;35.13;24.20;100232.97;5052322;28;20052;-68
2022/07/21 11:33:41;;;;;;;9.82;3.67;;;;;;;35.25;23.87;100236.47;5053639;28;20045;-68
2022/07/21 11:36:09;;;;;;;6.55;3.40;;;;;;;35.36;23.71;100231.06;5052379;28;20494;-68
2022/07/21 11:38:57;;;;;;;9.30;3.70;;;;;;;35.40;23.14;100243.34;5053573;28;20045;-68
2022/07/21 11:41:25;;;;;;;6.10;3.40;;;;;;;35.13;23.41;100232.09;5053781;28;20095;-68
2022/07/21 11:43:53;;;;;;;9.65;3.40;;;;;;;35.03;23.28;100237.50;5053429;28;20461;-68